createdAt,value
2017-10-17T00:00:29.469Z,973.92
2017-10-17T00:01:38.501Z,973.91
2017-10-17T00:02:47.535Z,973.91
2017-10-17T00:03:56.237Z,973.92
2017-10-17T00:05:04.935Z,973.92
2017-10-17T00:06:14.633Z,973.91
2017-10-17T00:07:23.998Z,973.89
2017-10-17T00:08:32.696Z,973.95
2017-10-17T00:09:41.725Z,973.98
2017-10-17T00:10:51.096Z,973.97
2017-10-17T00:12:00.129Z,973.97
2017-10-17T00:13:09.162Z,973.93
2017-10-17T00:14:18.533Z,973.9
2017-10-17T00:15:27.224Z,973.91
2017-10-17T00:16:36.256Z,974.01
2017-10-17T00:17:45.280Z,973.9
2017-10-17T00:18:54.311Z,973.87
2017-10-17T00:20:03.005Z,973.93
2017-10-17T00:21:12.045Z,973.93
2017-10-17T00:22:21.069Z,973.92
2017-10-17T00:23:29.766Z,973.89
2017-10-17T00:24:38.803Z,973.86
2017-10-17T00:25:47.838Z,973.96
2017-10-17T00:26:56.872Z,973.91
2017-10-17T00:28:05.571Z,973.96
2017-10-17T00:29:15.259Z,973.87
2017-10-17T00:30:24.290Z,973.9
2017-10-17T00:31:33.712Z,973.9
2017-10-17T00:32:42.742Z,973.87
2017-10-17T00:33:51.774Z,973.85
2017-10-17T00:35:01.132Z,973.83
2017-10-17T00:36:09.834Z,973.85
2017-10-17T00:37:18.867Z,973.82
2017-10-17T00:38:27.898Z,973.92
2017-10-17T00:39:37.274Z,973.84
2017-10-17T00:40:46.642Z,973.89
2017-10-17T00:41:56.006Z,973.85
2017-10-17T00:43:05.048Z,973.85
2017-10-17T00:44:14.444Z,973.83
2017-10-17T00:45:23.807Z,973.84
2017-10-17T00:46:32.838Z,973.85
2017-10-17T00:47:41.868Z,973.9
2017-10-17T00:48:50.894Z,973.84
2017-10-17T00:49:59.926Z,973.85
2017-10-17T00:51:09.295Z,973.83
2017-10-17T00:52:17.993Z,973.89
2017-10-17T00:53:27.027Z,973.86
2017-10-17T00:54:36.057Z,973.94
2017-10-17T00:55:44.756Z,973.84
2017-10-17T00:56:53.788Z,973.82
2017-10-17T00:58:02.816Z,973.82
2017-10-17T00:59:11.517Z,973.82
2017-10-17T01:00:20.986Z,973.8
2017-10-17T01:01:30.018Z,973.81
2017-10-17T01:02:39.380Z,973.78
2017-10-17T01:03:48.407Z,973.8
2017-10-17T01:04:57.435Z,973.83
2017-10-17T01:06:06.802Z,973.76
2017-10-17T01:07:15.496Z,973.73
2017-10-17T01:08:24.195Z,973.74
2017-10-17T01:09:32.897Z,973.73
2017-10-17T01:10:42.929Z,973.69
2017-10-17T01:11:51.623Z,973.71
2017-10-17T01:13:00.654Z,973.74
2017-10-17T01:14:09.353Z,973.7
2017-10-17T01:15:18.381Z,973.69
2017-10-17T01:16:27.413Z,973.65
2017-10-17T01:17:36.442Z,973.68
2017-10-17T01:18:45.141Z,973.64
2017-10-17T01:19:54.500Z,973.65
2017-10-17T01:21:03.536Z,973.63
2017-10-17T01:22:13.232Z,973.64
2017-10-17T01:23:22.596Z,973.67
2017-10-17T01:24:31.958Z,973.66
2017-10-17T01:25:41.329Z,973.7
2017-10-17T01:26:50.359Z,973.71
2017-10-17T01:27:59.723Z,973.71
2017-10-17T01:29:09.092Z,973.72
2017-10-17T01:30:18.122Z,973.68
2017-10-17T01:31:27.153Z,973.72
2017-10-17T01:32:36.195Z,973.78
2017-10-17T01:33:45.222Z,973.74
2017-10-17T01:34:54.254Z,973.76
2017-10-17T01:36:03.959Z,973.75
2017-10-17T01:37:12.999Z,973.74
2017-10-17T01:38:22.025Z,973.74
2017-10-17T01:39:31.070Z,973.7
2017-10-17T01:40:39.760Z,973.68
2017-10-17T01:41:49.123Z,973.67
2017-10-17T01:42:58.488Z,973.65
2017-10-17T01:44:07.860Z,973.65
2017-10-17T01:45:16.555Z,973.68
2017-10-17T01:46:25.919Z,973.67
2017-10-17T01:47:34.618Z,973.67
2017-10-17T01:48:43.645Z,973.68
2017-10-17T01:49:52.342Z,973.66
2017-10-17T01:51:01.044Z,973.68
2017-10-17T01:52:09.738Z,973.73
2017-10-17T01:53:18.440Z,973.71
2017-10-17T01:54:27.798Z,973.73
2017-10-17T01:55:36.493Z,973.74
2017-10-17T01:56:45.190Z,973.74
2017-10-17T01:57:54.222Z,973.71
2017-10-17T01:59:03.253Z,973.75
2017-10-17T02:00:12.948Z,973.73
2017-10-17T02:01:21.982Z,973.73
2017-10-17T02:02:30.675Z,973.71
2017-10-17T02:03:40.706Z,973.71
2017-10-17T02:04:49.738Z,973.67
2017-10-17T02:05:59.099Z,973.69
2017-10-17T02:07:08.132Z,973.66
2017-10-17T02:08:16.831Z,973.64
2017-10-17T02:09:25.531Z,973.63
2017-10-17T02:10:34.561Z,973.7
2017-10-17T02:11:43.921Z,973.65
2017-10-17T02:12:52.955Z,973.65
2017-10-17T02:14:02.316Z,973.66
2017-10-17T02:15:11.350Z,973.64
2017-10-17T02:16:20.386Z,973.67
2017-10-17T02:17:29.414Z,973.66
2017-10-17T02:18:38.444Z,973.64
2017-10-17T02:19:47.805Z,973.65
2017-10-17T02:20:57.833Z,973.63
2017-10-17T02:22:07.567Z,973.67
2017-10-17T02:23:16.262Z,973.66
2017-10-17T02:24:25.626Z,973.63
2017-10-17T02:25:35.322Z,973.6
2017-10-17T02:26:45.021Z,973.59
2017-10-17T02:27:54.051Z,973.61
2017-10-17T02:29:03.421Z,973.61
2017-10-17T02:30:12.791Z,973.55
2017-10-17T02:31:21.826Z,973.57
2017-10-17T02:32:30.864Z,973.56
2017-10-17T02:33:39.566Z,973.58
2017-10-17T02:34:48.264Z,973.58
2017-10-17T02:35:57.631Z,973.58
2017-10-17T02:37:07.003Z,973.57
2017-10-17T02:38:16.037Z,973.59
2017-10-17T02:39:24.733Z,973.53
2017-10-17T02:40:34.096Z,973.6
2017-10-17T02:41:43.128Z,973.6
2017-10-17T02:42:52.837Z,973.61
2017-10-17T02:44:01.535Z,973.64
2017-10-17T02:45:10.915Z,973.64
2017-10-17T02:46:19.935Z,973.64
2017-10-17T02:47:28.970Z,973.69
2017-10-17T02:48:38.330Z,973.67
2017-10-17T02:49:47.690Z,973.63
2017-10-17T02:50:57.060Z,973.67
2017-10-17T02:52:06.762Z,973.64
2017-10-17T02:53:15.792Z,973.66
2017-10-17T02:54:25.155Z,973.64
2017-10-17T02:55:35.197Z,973.6
2017-10-17T02:56:43.900Z,973.58
2017-10-17T02:57:52.930Z,973.61
2017-10-17T02:59:02.296Z,973.59
2017-10-17T03:00:11.661Z,973.59
2017-10-17T03:01:21.128Z,973.6
2017-10-17T03:02:30.489Z,973.62
2017-10-17T03:03:39.519Z,973.6
2017-10-17T03:04:48.548Z,973.61
2017-10-17T03:05:57.247Z,973.58
2017-10-17T03:07:05.947Z,973.58
2017-10-17T03:08:14.647Z,973.54
2017-10-17T03:09:23.343Z,973.6
2017-10-17T03:10:33.046Z,973.58
2017-10-17T03:11:41.739Z,973.57
2017-10-17T03:12:50.769Z,973.63
2017-10-17T03:13:59.806Z,973.58
2017-10-17T03:15:08.505Z,973.65
2017-10-17T03:16:17.870Z,973.61
2017-10-17T03:17:26.570Z,973.59
2017-10-17T03:18:35.929Z,973.6
2017-10-17T03:19:44.627Z,973.55
2017-10-17T03:20:53.656Z,973.56
2017-10-17T03:22:03.020Z,973.59
2017-10-17T03:23:11.724Z,973.53
2017-10-17T03:24:21.421Z,973.49
2017-10-17T03:25:30.452Z,973.48
2017-10-17T03:26:39.482Z,973.44
2017-10-17T03:27:48.842Z,973.47
2017-10-17T03:28:57.542Z,973.51
2017-10-17T03:30:07.245Z,973.55
2017-10-17T03:31:16.966Z,973.57
2017-10-17T03:32:25.665Z,973.61
2017-10-17T03:33:34.365Z,973.66
2017-10-17T03:34:43.396Z,973.73
2017-10-17T03:35:52.426Z,973.67
2017-10-17T03:37:01.474Z,973.67
2017-10-17T03:38:10.512Z,973.64
2017-10-17T03:39:19.539Z,973.69
2017-10-17T03:40:28.900Z,973.67
2017-10-17T03:41:37.932Z,973.69
2017-10-17T03:42:47.327Z,973.71
2017-10-17T03:43:56.355Z,973.73
2017-10-17T03:45:05.719Z,973.75
2017-10-17T03:46:15.081Z,973.72
2017-10-17T03:47:24.115Z,973.74
2017-10-17T03:48:33.479Z,973.73
2017-10-17T03:49:42.181Z,973.73
2017-10-17T03:50:51.214Z,973.76
2017-10-17T03:52:00.914Z,973.8
2017-10-17T03:53:10.325Z,973.79
2017-10-17T03:54:19.351Z,973.75
2017-10-17T03:55:28.377Z,973.78
2017-10-17T03:56:37.409Z,973.79
2017-10-17T03:57:46.111Z,973.77
2017-10-17T03:58:55.585Z,973.78
2017-10-17T04:00:04.958Z,973.79
2017-10-17T04:01:13.988Z,973.8
2017-10-17T04:02:23.355Z,973.84
2017-10-17T04:03:32.716Z,973.85
2017-10-17T04:04:41.409Z,973.87
2017-10-17T04:05:50.441Z,973.88
2017-10-17T04:06:59.139Z,973.89
2017-10-17T04:08:08.509Z,973.91
2017-10-17T04:09:17.542Z,973.89
2017-10-17T04:10:26.908Z,973.92
2017-10-17T04:11:35.605Z,973.87
2017-10-17T04:12:44.970Z,973.86
2017-10-17T04:13:54.330Z,973.86
2017-10-17T04:15:03.371Z,973.86
2017-10-17T04:16:12.402Z,973.85
2017-10-17T04:17:21.101Z,973.86
2017-10-17T04:18:29.804Z,973.85
2017-10-17T04:19:39.170Z,973.86
2017-10-17T04:20:48.210Z,973.85
2017-10-17T04:21:56.896Z,973.86
2017-10-17T04:23:05.942Z,973.76
2017-10-17T04:24:15.313Z,973.79
2017-10-17T04:25:24.673Z,973.84
2017-10-17T04:26:34.037Z,973.83
2017-10-17T04:27:43.407Z,973.85
2017-10-17T04:28:52.438Z,973.86
2017-10-17T04:30:01.805Z,973.9
2017-10-17T04:31:10.503Z,973.97
2017-10-17T04:32:19.535Z,973.94
2017-10-17T04:33:28.567Z,973.92
2017-10-17T04:34:37.264Z,973.95
2017-10-17T04:35:46.298Z,973.96
2017-10-17T04:36:55.992Z,973.93
2017-10-17T04:38:05.028Z,973.91
2017-10-17T04:39:14.069Z,973.95
2017-10-17T04:40:23.105Z,973.96
2017-10-17T04:41:32.484Z,973.89
2017-10-17T04:42:41.519Z,973.96
2017-10-17T04:43:50.217Z,973.97
2017-10-17T04:44:59.250Z,973.9
2017-10-17T04:46:08.276Z,973.93
2017-10-17T04:47:17.634Z,973.94
2017-10-17T04:48:26.331Z,973.95
2017-10-17T04:49:35.025Z,973.96
2017-10-17T04:50:44.717Z,973.93
2017-10-17T04:51:54.427Z,974
2017-10-17T04:53:03.458Z,974
